Time;durP1;ratioP1;P1;durP2;ratioP2;P2;SDS_P1;SDS_P2;PMS_P1;PMS_P2;Temp;Humidity;BMP_temperature;BMP_pressure;BME280_temperature;BME280_humidity;BME280_pressure;Samples;Min_cycle;Max_cycle;Signal;HPM_P1;HPM_P2
2020/12/05 00:01:08;;;;;;;6.90;2.80;;;2.30;93.30;;;;;;4862512;29;20040;-90
2020/12/05 00:03:35;;;;;;;5.83;2.23;;;2.40;93.30;;;;;;4879911;29;20950;-91
2020/12/05 00:06:01;;;;;;;4.87;2.07;;;2.40;93.30;;;;;;4845054;29;20047;-86
2020/12/05 00:08:28;;;;;;;3.17;1.70;;;2.50;93.20;;;;;;4861919;29;20669;-86
2020/12/05 00:10:54;;;;;;;4.40;2.53;;;2.50;93.20;;;;;;4862952;29;20044;-86
2020/12/05 00:13:21;;;;;;;3.10;1.20;;;2.50;93.20;;;;;;4879059;29;20041;-86
2020/12/05 00:15:47;;;;;;;3.77;2.03;;;2.50;93.20;;;;;;4862274;29;20072;-81
2020/12/05 00:18:14;;;;;;;4.80;2.33;;;2.50;93.20;;;;;;4848870;29;20508;-81
2020/12/05 00:20:40;;;;;;;4.37;2.53;;;2.50;93.20;;;;;;4878211;29;20051;-81
2020/12/05 00:23:07;;;;;;;7.10;2.50;;;2.50;93.20;;;;;;4874826;29;20064;-81
2020/12/05 00:25:34;;;;;;;5.40;1.90;;;2.50;93.20;;;;;;4888352;29;20056;-86
2020/12/05 00:28:00;;;;;;;6.83;3.10;;;2.50;93.20;;;;;;4879856;29;20044;-87
2020/12/05 00:30:28;;;;;;;6.17;2.63;;;2.40;93.20;;;;;;4842751;29;20041;-86
2020/12/05 00:33:00;;;;;;;4.13;1.83;;;2.40;93.30;;;;;;4841527;29;20480;-86
2020/12/05 00:35:27;;;;;;;3.70;1.60;;;2.40;93.30;;;;;;4874059;29;20076;-86
2020/12/05 00:37:58;;;;;;;4.83;1.70;;;2.40;93.30;;;;;;4879366;29;20048;-86
2020/12/05 00:40:24;;;;;;;4.43;1.93;;;2.50;93.30;;;;;;4857447;29;20045;-86
2020/12/05 00:42:50;;;;;;;4.23;2.03;;;2.40;93.30;;;;;;4859300;29;20052;-81
2020/12/05 00:45:17;;;;;;;3.77;1.93;;;2.40;93.30;;;;;;4855707;29;20049;-81
2020/12/05 00:47:44;;;;;;;3.30;1.50;;;2.40;93.30;;;;;;4857068;29;20476;-86
2020/12/05 00:50:10;;;;;;;3.63;1.30;;;2.50;93.40;;;;;;4843867;29;20047;-82
2020/12/05 00:52:37;;;;;;;3.10;1.63;;;2.40;93.40;;;;;;4888463;29;20041;-81
2020/12/05 00:55:06;;;;;;;3.93;1.90;;;2.50;93.50;;;;;;4870061;29;20488;-81
2020/12/05 00:57:33;;;;;;;3.40;1.77;;;2.50;93.40;;;;;;4873227;29;20053;-81
2020/12/05 01:00:00;;;;;;;3.50;1.40;;;2.50;93.30;;;;;;4861519;29;20036;-81
2020/12/05 01:02:27;;;;;;;3.37;2.07;;;2.50;93.30;;;;;;4872926;29;20042;-81
2020/12/05 01:04:53;;;;;;;2.80;1.67;;;2.40;93.30;;;;;;4873841;29;20053;-81
2020/12/05 01:07:25;;;;;;;3.93;1.70;;;2.40;93.40;;;;;;4890311;29;20071;-86
2020/12/05 01:09:55;;;;;;;3.30;1.30;;;2.30;93.40;;;;;;4892623;29;20040;-86
2020/12/05 01:12:24;;;;;;;2.47;1.50;;;2.30;93.70;;;;;;4875903;29;20396;-86
2020/12/05 01:14:52;;;;;;;2.03;1.10;;;2.20;93.70;;;;;;4847063;29;20053;-86
2020/12/05 01:17:24;;;;;;;3.30;2.07;;;2.20;93.50;;;;;;4863265;29;20044;-86
2020/12/05 01:19:52;;;;;;;4.80;2.33;;;2.20;93.50;;;;;;4860714;29;20049;-86
2020/12/05 01:22:20;;;;;;;3.73;2.10;;;2.10;93.50;;;;;;4863511;29;20503;-86
2020/12/05 01:24:46;;;;;;;3.90;2.00;;;2.10;93.60;;;;;;4876779;29;20041;-86
2020/12/05 01:27:13;;;;;;;6.27;2.23;;;2.10;93.60;;;;;;4833483;29;20040;-86
2020/12/05 01:29:39;;;;;;;4.33;1.83;;;2.00;93.60;;;;;;4840716;29;20044;-86
2020/12/05 01:32:06;;;;;;;5.63;2.17;;;2.00;93.70;;;;;;4861081;29;20043;-86
2020/12/05 01:34:32;;;;;;;4.90;2.20;;;2.00;93.70;;;;;;4858703;29;20507;-86
2020/12/05 01:36:59;;;;;;;2.97;2.00;;;2.00;93.70;;;;;;4846847;29;20044;-86
2020/12/05 01:39:25;;;;;;;3.47;1.87;;;2.00;93.70;;;;;;4858664;29;20049;-86
2020/12/05 01:41:52;;;;;;;2.70;1.87;;;1.90;93.70;;;;;;4844215;29;20040;-86
2020/12/05 01:44:18;;;;;;;3.83;2.20;;;1.90;93.80;;;;;;4861187;29;20044;-86
2020/12/05 01:46:47;;;;;;;4.37;2.30;;;1.90;93.80;;;;;;4860224;29;20048;-85
2020/12/05 01:49:18;;;;;;;4.60;2.23;;;1.90;93.90;;;;;;4842379;29;20053;-86
2020/12/05 01:51:45;;;;;;;3.37;1.87;;;1.90;93.90;;;;;;4859633;29;20078;-86
2020/12/05 01:54:12;;;;;;;4.17;2.07;;;1.90;93.80;;;;;;4861603;29;20052;-86
2020/12/05 01:56:42;;;;;;;4.63;2.50;;;1.90;93.80;;;;;;4878841;29;20056;-86
2020/12/05 01:59:10;;;;;;;2.97;2.20;;;2.00;93.90;;;;;;4861020;29;20036;-86
2020/12/05 02:01:39;;;;;;;3.90;2.00;;;2.00;93.80;;;;;;4846997;29;20052;-86
2020/12/05 02:04:05;;;;;;;3.53;1.93;;;2.10;93.90;;;;;;4871417;29;20037;-86
2020/12/05 02:06:35;;;;;;;4.30;2.00;;;2.10;93.80;;;;;;4870882;29;20040;-86
2020/12/05 02:09:28;;;;;;;4.30;2.47;;;2.10;93.70;;;;;;4862230;29;20043;-86
2020/12/05 02:12:21;;;;;;;4.90;2.37;;;2.20;93.80;;;;;;4857056;29;20049;-86
2020/12/05 02:14:51;;;;;;;4.90;2.00;;;2.20;93.70;;;;;;4887892;29;20087;-86
2020/12/05 02:17:20;;;;;;;7.33;3.20;;;2.30;93.70;;;;;;4856744;29;20042;-86
2020/12/05 02:19:52;;;;;;;6.03;2.13;;;2.40;93.70;;;;;;4872606;29;20044;-86
2020/12/05 02:22:27;;;;;;;5.40;2.47;;;2.40;93.60;;;;;;4856338;29;20056;-86
2020/12/05 02:24:57;;;;;;;6.47;3.00;;;2.50;93.60;;;;;;4894353;29;20060;-85
2020/12/05 02:27:25;;;;;;;5.87;3.13;;;2.60;93.60;;;;;;4881808;29;20048;-85
2020/12/05 02:29:52;;;;;;;5.47;2.70;;;2.60;93.60;;;;;;4866315;29;20047;-86
2020/12/05 02:32:18;;;;;;;6.07;2.80;;;2.60;93.60;;;;;;4881329;29;20036;-86
2020/12/05 02:34:45;;;;;;;4.80;3.07;;;2.60;93.60;;;;;;4863590;29;20045;-86
2020/12/05 02:37:15;;;;;;;5.07;3.20;;;2.60;93.60;;;;;;4848382;29;20064;-86
2020/12/05 02:39:43;;;;;;;7.23;3.60;;;2.70;93.60;;;;;;4863274;29;20492;-85
2020/12/05 02:42:14;;;;;;;5.23;3.13;;;2.60;93.60;;;;;;4863744;29;20041;-85
2020/12/05 02:44:52;;;;;;;7.33;3.03;;;2.70;93.70;;;;;;4862996;29;20038;-85
2020/12/05 02:47:19;;;;;;;3.80;2.50;;;2.70;93.70;;;;;;4897972;29;20041;-86
2020/12/05 02:49:47;;;;;;;5.27;4.00;;;2.70;93.70;;;;;;4880305;29;20040;-86
2020/12/05 02:52:14;;;;;;;8.83;3.80;;;2.70;93.70;;;;;;4863973;29;20060;-86
2020/12/05 02:54:40;;;;;;;8.53;3.50;;;2.70;93.70;;;;;;4845496;29;20040;-86
2020/12/05 02:57:07;;;;;;;8.63;3.70;;;2.80;93.70;;;;;;4879976;29;20079;-86
2020/12/05 02:59:33;;;;;;;7.30;3.57;;;2.80;93.70;;;;;;4849951;29;20037;-86
2020/12/05 03:02:00;;;;;;;5.70;3.30;;;2.80;93.70;;;;;;4849361;29;20042;-85
2020/12/05 03:04:27;;;;;;;5.63;2.77;;;2.80;93.70;;;;;;4866628;29;20048;-85
2020/12/05 03:06:53;;;;;;;6.47;3.27;;;2.80;93.70;;;;;;4845449;29;20041;-81
2020/12/05 03:09:20;;;;;;;7.17;3.80;;;2.80;93.70;;;;;;4849843;29;20036;-81
2020/12/05 03:11:46;;;;;;;6.07;3.17;;;2.80;93.70;;;;;;4866460;29;20044;-81
2020/12/05 03:14:12;;;;;;;6.63;2.93;;;2.90;93.70;;;;;;4878152;29;20056;-81
2020/12/05 03:16:39;;;;;;;6.53;3.37;;;2.90;93.70;;;;;;4895137;29;20040;-85
2020/12/05 03:19:06;;;;;;;5.87;4.20;;;2.90;93.70;;;;;;4849813;29;20472;-85
2020/12/05 03:21:32;;;;;;;4.83;2.83;;;2.90;94.00;;;;;;4864143;29;20048;-85
2020/12/05 03:23:59;;;;;;;6.60;3.53;;;2.90;93.80;;;;;;4895880;29;20060;-86
2020/12/05 03:26:25;;;;;;;7.30;3.57;;;2.90;93.80;;;;;;4848757;29;20041;-85
2020/12/05 03:28:52;;;;;;;6.93;3.17;;;2.80;93.80;;;;;;4862285;29;20049;-85
2020/12/05 03:32:08;;;;;;;6.00;3.23;;;2.80;93.80;;;;;;4860161;29;20049;-85
2020/12/05 03:34:06;;;;;;;6.87;3.80;;;2.80;93.80;;;;;;4861807;29;20044;-85
2020/12/05 03:36:33;;;;;;;6.87;4.03;;;2.80;93.80;;;;;;4847713;29;20044;-85
2020/12/05 03:38:59;;;;;;;6.67;4.00;;;2.80;93.90;;;;;;4863058;29;20036;-85
2020/12/05 03:41:26;;;;;;;7.30;4.10;;;2.70;93.90;;;;;;4851064;29;20049;-85
2020/12/05 03:43:52;;;;;;;7.37;4.17;;;2.70;93.90;;;;;;4881943;29;20048;-85
2020/12/05 03:46:18;;;;;;;6.33;4.20;;;2.70;93.90;;;;;;4896682;29;20048;-85
2020/12/05 03:48:45;;;;;;;5.67;4.10;;;2.70;93.90;;;;;;4864828;29;20045;-85
2020/12/05 03:51:11;;;;;;;4.73;2.90;;;2.70;93.90;;;;;;4880205;29;20044;-85
2020/12/05 03:53:38;;;;;;;5.00;2.43;;;2.70;93.90;;;;;;4879489;29;20041;-85
2020/12/05 03:56:06;;;;;;;5.50;3.63;;;2.70;93.90;;;;;;4890943;29;20059;-85
2020/12/05 03:58:32;;;;;;;3.47;2.23;;;2.60;93.90;;;;;;4877020;29;20063;-85
2020/12/05 04:00:58;;;;;;;4.77;3.40;;;2.60;93.90;;;;;;4878104;29;20067;-80
2020/12/05 04:03:25;;;;;;;6.37;4.17;;;2.50;93.90;;;;;;4841037;29;20045;-80
2020/12/05 04:05:51;;;;;;;6.93;3.27;;;2.50;94.00;;;;;;4876335;29;20513;-80
2020/12/05 04:08:18;;;;;;;5.53;3.30;;;2.40;94.00;;;;;;4859412;29;20473;-80
2020/12/05 04:10:44;;;;;;;5.13;3.37;;;2.40;94.10;;;;;;4843090;29;20067;-80
2020/12/05 04:13:11;;;;;;;3.50;2.90;;;2.30;94.10;;;;;;4876053;29;20585;-80
2020/12/05 04:15:38;;;;;;;7.77;4.30;;;2.30;94.10;;;;;;4870631;29;20053;-80
2020/12/05 04:18:04;;;;;;;6.67;3.00;;;2.30;94.20;;;;;;4843815;29;20056;-80
2020/12/05 04:20:34;;;;;;;7.03;4.60;;;2.30;94.20;;;;;;4887183;29;20515;-80
2020/12/05 04:23:00;;;;;;;4.87;3.67;;;2.30;94.20;;;;;;4860112;29;20044;-80
2020/12/05 04:25:26;;;;;;;8.37;4.17;;;2.30;94.20;;;;;;4848546;29;20052;-85
2020/12/05 04:27:53;;;;;;;10.60;4.60;;;2.40;94.20;;;;;;4876601;29;20045;-84
2020/12/05 04:30:20;;;;;;;5.07;3.67;;;2.40;94.10;;;;;;4889724;29;20045;-85
2020/12/05 04:32:48;;;;;;;8.57;3.83;;;2.40;94.10;;;;;;4858902;29;20032;-84
2020/12/05 04:35:15;;;;;;;4.60;2.90;;;2.40;94.10;;;;;;4875502;29;20052;-84
2020/12/05 04:37:41;;;;;;;7.13;4.47;;;2.30;94.10;;;;;;4862894;29;20067;-84
2020/12/05 04:40:08;;;;;;;9.07;4.80;;;2.30;94.10;;;;;;4832498;29;20071;-84
2020/12/05 04:42:46;;;;;;;9.77;5.90;;;2.30;94.40;;;;;;4849125;29;20048;-85
2020/12/05 04:45:13;;;;;;;7.20;5.40;;;2.30;94.10;;;;;;4889205;29;20057;-84
2020/12/05 04:47:42;;;;;;;6.70;5.10;;;2.20;94.10;;;;;;4876815;29;20056;-85
2020/12/05 04:50:09;;;;;;;9.20;5.30;;;2.20;94.10;;;;;;4878953;29;20048;-85
2020/12/05 04:52:39;;;;;;;6.27;4.20;;;2.10;94.10;;;;;;4876003;29;20036;-85
2020/12/05 04:55:07;;;;;;;4.30;3.30;;;2.10;94.10;;;;;;4857160;29;20033;-84
2020/12/05 04:57:58;;;;;;;5.80;2.67;;;2.10;94.20;;;;;;4876259;29;20860;-84
2020/12/05 05:00:28;;;;;;;5.57;3.20;;;2.00;94.30;;;;;;4844496;29;20048;-84
2020/12/05 05:02:59;;;;;;;6.63;4.40;;;1.90;94.30;;;;;;4872914;29;20409;-80
2020/12/05 05:05:26;;;;;;;6.90;4.03;;;1.90;94.30;;;;;;4893796;29;20086;-80
2020/12/05 05:07:54;;;;;;;6.80;5.10;;;1.90;94.30;;;;;;4860514;29;20045;-80
2020/12/05 05:10:27;;;;;;;7.30;4.80;;;1.80;94.30;;;;;;4839192;29;20050;-81
2020/12/05 05:13:03;;;;;;;7.53;4.40;;;1.80;94.40;;;;;;4884942;29;20062;-81
2020/12/05 05:15:31;;;;;;;6.57;4.70;;;1.80;94.40;;;;;;4856635;29;20072;-81
2020/12/05 05:18:00;;;;;;;8.40;4.40;;;1.80;94.40;;;;;;4857408;29;20409;-81
2020/12/05 05:20:28;;;;;;;5.87;3.83;;;1.70;94.40;;;;;;4885056;29;20032;-81
2020/12/05 05:23:28;;;;;;;4.67;3.17;;;1.70;94.40;;;;;;4858464;29;20056;-81
2020/12/05 05:25:58;;;;;;;7.83;4.70;;;1.70;94.50;;;;;;4826925;29;20052;-80
2020/12/05 05:28:27;;;;;;;6.43;4.07;;;1.70;94.50;;;;;;4860163;29;20044;-81
2020/12/05 05:31:23;;;;;;;8.60;4.83;;;1.70;94.50;;;;;;4889402;29;20040;-81
2020/12/05 05:33:54;;;;;;;5.67;3.70;;;1.70;94.50;;;;;;4875892;29;20036;-82
2020/12/05 05:36:26;;;;;;;6.40;3.47;;;1.70;94.50;;;;;;4884980;29;20051;-80
2020/12/05 05:38:57;;;;;;;7.22;4.28;;;1.70;94.50;;;;;;4885024;29;20064;-78
2020/12/05 05:41:24;;;;;;;7.07;4.60;;;1.70;94.50;;;;;;4876262;29;20056;-81
2020/12/05 05:43:56;;;;;;;8.90;6.30;;;1.80;94.50;;;;;;4854035;29;20394;-82
2020/12/05 05:46:25;;;;;;;8.50;5.68;;;1.80;94.50;;;;;;4859764;29;20045;-83
2020/12/05 05:48:52;;;;;;;11.37;7.93;;;1.90;94.50;;;;;;4855809;29;20055;-82
2020/12/05 05:51:39;;;;;;;10.13;6.73;;;2.00;94.50;;;;;;4892861;29;20063;-82
2020/12/05 05:54:19;;;;;;;10.43;7.20;;;2.00;94.40;;;;;;4891515;29;20757;-82
2020/12/05 05:56:56;;;;;;;7.80;5.63;;;2.10;94.40;;;;;;4861498;29;20233;-85
2020/12/05 05:59:26;;;;;;;8.93;6.30;;;2.10;94.30;;;;;;4870292;29;20384;-87
2020/12/05 06:01:53;;;;;;;9.00;6.83;;;2.10;94.30;;;;;;4863860;29;20044;-84
2020/12/05 06:04:25;;;;;;;8.63;5.83;;;2.00;94.30;;;;;;4860760;29;20053;-84
2020/12/05 06:06:52;;;;;;;8.53;5.93;;;2.00;94.30;;;;;;4862443;29;20036;-89
2020/12/05 06:09:27;;;;;;;10.47;7.23;;;2.00;94.60;;;;;;4854622;29;20400;-91
2020/12/05 06:11:56;;;;;;;11.13;6.93;;;1.90;94.40;;;;;;4865874;29;20115;-85
2020/12/05 06:14:24;;;;;;;12.80;8.70;;;1.90;94.40;;;;;;4857870;29;20052;-84
2020/12/05 06:16:56;;;;;;;15.60;9.43;;;2.00;94.50;;;;;;4883997;29;20793;-86
2020/12/05 06:19:24;;;;;;;13.73;10.05;;;1.90;94.40;;;;;;4854720;29;20041;-83
2020/12/05 06:21:53;;;;;;;9.87;7.40;;;1.90;94.50;;;;;;4851111;29;20056;-82
2020/12/05 06:24:40;;;;;;;11.43;8.10;;;1.80;94.50;;;;;;4874223;29;20067;-82
2020/12/05 06:27:09;;;;;;;8.77;6.80;;;1.80;94.50;;;;;;4854845;29;20067;-81
2020/12/05 06:29:38;;;;;;;9.33;6.43;;;1.80;94.50;;;;;;4874744;29;20503;-82
2020/12/05 06:32:04;;;;;;;10.27;6.57;;;1.70;94.50;;;;;;4876392;29;20056;-81
2020/12/05 06:34:40;;;;;;;10.00;6.90;;;1.70;94.50;;;;;;4853591;29;20036;-82
2020/12/05 06:37:09;;;;;;;8.97;6.17;;;1.60;94.60;;;;;;4868943;29;20052;-82
2020/12/05 06:39:35;;;;;;;9.00;6.50;;;1.70;94.70;;;;;;4858744;29;20048;-82
2020/12/05 06:42:03;;;;;;;12.07;7.07;;;1.60;94.60;;;;;;4883964;29;20147;-81
2020/12/05 06:44:32;;;;;;;9.93;7.73;;;1.60;94.60;;;;;;4887307;29;20045;-80
2020/12/05 06:47:00;;;;;;;11.33;7.73;;;1.60;94.60;;;;;;4856046;29;20049;-81
2020/12/05 06:49:37;;;;;;;12.13;7.77;;;1.50;94.70;;;;;;4888518;29;20059;-81
2020/12/05 06:52:22;;;;;;;9.67;7.30;;;1.50;94.70;;;;;;4858252;29;20049;-82
2020/12/05 06:54:52;;;;;;;9.57;6.77;;;1.50;94.70;;;;;;4867034;29;20036;-80
2020/12/05 06:57:20;;;;;;;10.77;6.20;;;1.40;94.80;;;;;;4858834;29;20037;-82
2020/12/05 06:59:47;;;;;;;11.57;8.30;;;1.50;94.80;;;;;;4842760;29;20052;-87
2020/12/05 07:02:30;;;;;;;11.90;8.03;;;1.50;94.80;;;;;;4845544;29;20049;-84
2020/12/05 07:05:18;;;;;;;14.13;7.90;;;1.50;94.80;;;;;;4860281;29;20036;-84
2020/12/05 07:07:46;;;;;;;10.33;7.90;;;1.40;94.80;;;;;;4858289;29;20034;-84
2020/12/05 07:10:13;;;;;;;10.20;7.53;;;1.50;94.80;;;;;;4879071;29;20392;-84
2020/12/05 07:12:40;;;;;;;6.30;4.23;;;1.50;94.80;;;;;;4867398;29;20052;-84
2020/12/05 07:15:21;;;;;;;11.13;7.17;;;1.50;94.80;;;;;;4880173;29;20056;-83
2020/12/05 07:17:52;;;;;;;7.57;4.77;;;1.50;94.80;;;;;;4880822;29;20373;-83
2020/12/05 07:20:19;;;;;;;10.03;7.67;;;1.50;94.70;;;;;;4878993;29;20036;-83
2020/12/05 07:22:49;;;;;;;8.60;5.77;;;1.60;95.00;;;;;;4889967;29;20048;-81
2020/12/05 07:25:16;;;;;;;8.73;6.67;;;1.60;94.80;;;;;;4871747;29;20048;-81
2020/12/05 07:27:43;;;;;;;13.47;8.80;;;1.70;94.80;;;;;;4877992;29;20044;-81
2020/12/05 07:30:10;;;;;;;10.90;7.37;;;1.70;94.70;;;;;;4875393;29;20063;-81
2020/12/05 07:32:38;;;;;;;11.77;8.17;;;1.80;94.70;;;;;;4876999;29;20420;-81
2020/12/05 07:35:10;;;;;;;14.47;8.83;;;1.90;94.70;;;;;;4864518;29;20060;-81
2020/12/05 07:37:37;;;;;;;13.85;9.30;;;1.90;94.70;;;;;;4858673;29;20389;-81
2020/12/05 07:40:06;;;;;;;11.57;8.30;;;1.90;94.60;;;;;;4840384;29;20048;-81
2020/12/05 07:42:37;;;;;;;11.97;8.93;;;2.00;94.60;;;;;;4860152;29;20060;-84
2020/12/05 07:45:13;;;;;;;10.83;7.67;;;2.00;94.60;;;;;;4849367;29;20052;-80
2020/12/05 07:47:42;;;;;;;11.17;7.87;;;2.10;94.60;;;;;;4865010;29;20041;-81
2020/12/05 07:50:10;;;;;;;13.00;8.17;;;2.10;94.60;;;;;;4851225;29;20053;-81
2020/12/05 07:52:42;;;;;;;10.20;8.10;;;2.20;94.60;;;;;;4874146;29;20067;-81
2020/12/05 07:55:10;;;;;;;10.80;7.30;;;2.20;94.60;;;;;;4842970;29;20045;-81
2020/12/05 07:57:39;;;;;;;13.43;8.70;;;2.20;94.60;;;;;;4867867;29;20056;-81
2020/12/05 08:00:08;;;;;;;12.90;7.60;;;2.30;94.60;;;;;;4855245;29;20057;-81
2020/12/05 08:02:34;;;;;;;10.67;7.63;;;2.30;94.60;;;;;;4872110;29;20072;-81
2020/12/05 08:05:08;;;;;;;9.90;7.43;;;2.40;94.60;;;;;;4854180;29;20056;-81
2020/12/05 08:07:41;;;;;;;11.80;7.70;;;2.50;94.60;;;;;;4882441;29;20049;-80
2020/12/05 08:10:15;;;;;;;11.40;7.93;;;2.50;94.60;;;;;;4869061;29;20033;-81
2020/12/05 08:12:44;;;;;;;10.63;8.10;;;2.60;94.50;;;;;;4888675;29;20044;-81
2020/12/05 08:15:18;;;;;;;11.23;6.90;;;2.60;94.50;;;;;;4878575;29;21543;-81
2020/12/05 08:17:46;;;;;;;11.50;8.43;;;2.60;94.40;;;;;;4890507;29;20053;-80
2020/12/05 08:20:14;;;;;;;12.17;8.73;;;2.70;94.50;;;;;;4852191;29;21349;-81
2020/12/05 08:22:41;;;;;;;13.90;9.43;;;2.70;94.40;;;;;;4875241;29;20037;-81
2020/12/05 08:25:10;;;;;;;12.70;9.37;;;2.70;94.50;;;;;;4855787;29;20071;-81
2020/12/05 08:27:37;;;;;;;12.83;9.60;;;2.70;94.50;;;;;;4855489;29;20049;-83
2020/12/05 08:30:05;;;;;;;10.73;8.70;;;2.80;94.50;;;;;;4891729;29;20067;-83
2020/12/05 08:32:32;;;;;;;13.07;9.87;;;2.80;94.50;;;;;;4857081;29;20041;-84
2020/12/05 08:35:09;;;;;;;12.87;8.77;;;2.80;94.50;;;;;;4860045;29;20478;-82
2020/12/05 08:37:43;;;;;;;13.97;8.80;;;2.90;94.60;;;;;;4876022;29;20037;-81
2020/12/05 08:40:16;;;;;;;12.53;8.40;;;2.90;94.60;;;;;;4861532;29;20495;-81
2020/12/05 08:42:49;;;;;;;13.37;10.67;;;3.00;94.60;;;;;;4861073;29;20040;-82
2020/12/05 08:45:20;;;;;;;16.08;11.10;;;3.00;94.50;;;;;;4834979;29;20041;-79
2020/12/05 08:47:48;;;;;;;16.47;9.73;;;3.10;94.50;;;;;;4843643;29;20048;-80
2020/12/05 08:50:22;;;;;;;14.53;11.77;;;3.20;94.50;;;;;;4866323;29;20037;-85
2020/12/05 08:52:53;;;;;;;13.57;10.13;;;3.20;94.40;;;;;;4879291;29;20041;-85
2020/12/05 08:55:32;;;;;;;13.30;8.83;;;3.30;94.40;;;;;;4879400;29;20091;-86
2020/12/05 08:58:06;;;;;;;13.67;7.87;;;3.30;94.40;;;;;;4880552;29;20423;-89
2020/12/05 09:00:37;;;;;;;10.13;6.30;;;3.30;94.40;;;;;;4863097;29;20032;-83
2020/12/05 09:03:17;;;;;;;10.10;7.90;;;3.40;94.40;;;;;;4858491;29;20056;-81
2020/12/05 09:05:45;;;;;;;9.17;6.33;;;3.40;94.40;;;;;;4891079;29;20044;-81
2020/12/05 09:08:18;;;;;;;8.70;6.30;;;3.40;94.40;;;;;;4842197;29;20044;-81
2020/12/05 09:10:45;;;;;;;8.43;6.43;;;3.40;94.40;;;;;;4859418;29;20044;-79
2020/12/05 09:13:12;;;;;;;9.70;7.70;;;3.50;94.40;;;;;;4895173;29;20051;-85
2020/12/05 09:15:52;;;;;;;9.60;7.33;;;3.50;94.40;;;;;;4858379;29;20046;-84
2020/12/05 09:18:18;;;;;;;9.30;7.17;;;3.60;94.50;;;;;;4874034;29;20056;-81
2020/12/05 09:20:45;;;;;;;7.97;5.97;;;3.60;94.50;;;;;;4877418;29;20039;-82
2020/12/05 09:23:11;;;;;;;8.33;5.40;;;3.70;94.40;;;;;;4888464;29;20048;-82
2020/12/05 09:25:43;;;;;;;7.50;5.47;;;3.70;94.40;;;;;;4861085;29;20040;-82
2020/12/05 09:28:16;;;;;;;10.10;5.68;;;3.80;94.40;;;;;;4857248;29;20048;-82
2020/12/05 09:30:42;;;;;;;12.98;6.97;;;3.80;94.40;;;;;;4873853;29;20053;-80
2020/12/05 09:33:16;;;;;;;9.67;6.67;;;3.90;94.40;;;;;;4845191;29;20045;-80
2020/12/05 09:35:46;;;;;;;12.90;7.30;;;4.00;94.40;;;;;;4867158;29;20044;-80
2020/12/05 09:38:12;;;;;;;7.70;5.50;;;4.10;94.40;;;;;;4892027;29;20048;-81
2020/12/05 09:40:39;;;;;;;11.10;6.57;;;4.20;94.40;;;;;;4893204;29;20503;-83
2020/12/05 09:43:08;;;;;;;7.37;5.33;;;4.30;94.60;;;;;;4845069;29;20041;-86
2020/12/05 09:45:34;;;;;;;6.50;4.73;;;4.40;94.90;;;;;;4885047;29;20056;-81
2020/12/05 09:48:04;;;;;;;5.85;4.25;;;4.60;95.30;;;;;;4875066;29;20049;-81
2020/12/05 09:50:31;;;;;;;6.25;4.57;;;4.80;95.70;;;;;;4874997;29;20048;-81
2020/12/05 09:52:59;;;;;;;7.97;4.40;;;5.10;95.90;;;;;;4879800;29;20039;-81
2020/12/05 09:55:26;;;;;;;5.35;3.92;;;5.30;96.10;;;;;;4853311;29;21132;-82
2020/12/05 09:57:53;;;;;;;6.70;3.28;;;5.60;96.20;;;;;;4893572;29;20063;-81
2020/12/05 10:00:20;;;;;;;3.92;2.42;;;5.80;96.40;;;;;;4875500;29;20052;-82
2020/12/05 10:02:46;;;;;;;3.38;2.47;;;6.20;96.50;;;;;;4894734;29;20055;-81
2020/12/05 10:05:13;;;;;;;2.83;2.25;;;6.50;96.40;;;;;;4892079;29;20067;-80
2020/12/05 10:07:40;;;;;;;4.47;2.78;;;6.80;96.40;;;;;;4846129;29;20052;-82
2020/12/05 10:10:08;;;;;;;3.50;2.42;;;7.10;95.60;;;;;;4887610;29;20044;-81
2020/12/05 10:12:36;;;;;;;3.05;2.03;;;7.30;95.50;;;;;;4861994;29;20040;-84
2020/12/05 10:15:06;;;;;;;4.65;2.30;;;7.50;95.30;;;;;;4875165;29;20052;-82
2020/12/05 10:17:35;;;;;;;4.20;2.50;;;7.70;94.60;;;;;;4889049;29;20069;-80
2020/12/05 10:20:03;;;;;;;2.72;1.90;;;7.90;94.40;;;;;;4872176;29;20044;-80
2020/12/05 10:22:29;;;;;;;3.28;2.03;;;8.10;94.30;;;;;;4874860;29;20472;-80
2020/12/05 10:24:56;;;;;;;4.03;2.08;;;8.10;93.90;;;;;;4863011;29;20040;-80
2020/12/05 10:27:22;;;;;;;3.05;1.95;;;8.00;93.50;;;;;;4888079;29;20404;-80
2020/12/05 10:29:49;;;;;;;3.03;2.28;;;7.80;93.10;;;;;;4873737;29;20037;-80
2020/12/05 10:32:17;;;;;;;2.30;2.00;;;7.70;92.90;;;;;;4858104;29;20032;-81
2020/12/05 10:34:43;;;;;;;3.47;1.83;;;7.50;92.70;;;;;;4859259;29;20381;-80
2020/12/05 10:37:10;;;;;;;4.43;2.20;;;7.30;92.50;;;;;;4889704;29;20072;-80
2020/12/05 10:39:36;;;;;;;3.72;2.58;;;7.20;92.00;;;;;;4859433;29;20493;-80
2020/12/05 10:42:02;;;;;;;4.65;2.40;;;7.00;91.50;;;;;;4894739;29;20480;-80
2020/12/05 10:44:29;;;;;;;4.47;2.10;;;6.90;91.20;;;;;;4862487;29;20064;-80
2020/12/05 10:46:55;;;;;;;3.63;2.65;;;6.70;91.00;;;;;;4881510;29;20052;-80
2020/12/05 10:49:23;;;;;;;3.10;2.08;;;6.50;90.60;;;;;;4894144;29;20060;-80
2020/12/05 10:51:49;;;;;;;3.45;2.22;;;6.40;90.70;;;;;;4840384;29;20041;-80
2020/12/05 10:54:21;;;;;;;3.72;2.08;;;6.30;90.70;;;;;;4877920;29;20033;-80
2020/12/05 10:56:48;;;;;;;3.20;2.17;;;6.20;90.40;;;;;;4851729;29;20056;-80
2020/12/05 10:59:14;;;;;;;3.75;1.98;;;6.10;90.50;;;;;;4879671;29;20319;-81
2020/12/05 11:01:41;;;;;;;3.42;2.20;;;6.00;90.50;;;;;;4877617;29;20402;-80
2020/12/05 11:04:08;;;;;;;5.22;2.20;;;6.00;90.60;;;;;;4849595;29;20045;-80
2020/12/05 11:06:34;;;;;;;4.07;2.50;;;5.90;90.70;;;;;;4892168;29;20052;-80
2020/12/05 11:09:01;;;;;;;3.22;2.25;;;5.90;90.60;;;;;;4842197;29;20045;-79
2020/12/05 11:11:27;;;;;;;3.22;2.55;;;5.90;90.60;;;;;;4855679;29;20500;-80
2020/12/05 11:13:54;;;;;;;2.97;2.00;;;5.90;90.50;;;;;;4842861;29;20477;-79
2020/12/05 11:16:22;;;;;;;3.42;1.70;;;6.00;90.60;;;;;;4855315;29;20045;-79
2020/12/05 11:18:50;;;;;;;3.17;2.08;;;6.00;90.60;;;;;;4861830;29;20042;-79
2020/12/05 11:21:16;;;;;;;3.72;2.28;;;6.10;90.50;;;;;;4878853;29;20028;-80
2020/12/05 11:23:43;;;;;;;7.10;2.00;;;6.00;90.40;;;;;;4876349;29;20049;-79
2020/12/05 11:26:10;;;;;;;4.70;2.63;;;6.10;90.50;;;;;;4871882;29;20529;-80
2020/12/05 11:28:36;;;;;;;3.67;2.70;;;6.10;90.50;;;;;;4851580;29;20056;-80
2020/12/05 11:31:03;;;;;;;3.95;2.38;;;6.20;90.60;;;;;;4871762;29;20048;-80
2020/12/05 11:33:29;;;;;;;3.25;1.98;;;6.30;90.70;;;;;;4892542;29;20041;-80
2020/12/05 11:35:56;;;;;;;4.30;1.88;;;6.50;90.60;;;;;;4894861;29;20040;-79
2020/12/05 11:38:22;;;;;;;3.22;2.47;;;6.60;90.40;;;;;;4830251;29;20057;-79
2020/12/05 11:40:49;;;;;;;3.88;2.00;;;6.70;90.30;;;;;;4861901;29;20041;-79
2020/12/05 11:43:16;;;;;;;4.95;2.03;;;6.90;90.20;;;;;;4890285;29;20037;-79
2020/12/05 11:45:45;;;;;;;3.10;1.92;;;7.00;88.80;;;;;;4893034;29;20053;-80
2020/12/05 11:48:12;;;;;;;5.35;2.25;;;7.10;88.80;;;;;;4842864;29;20065;-79
2020/12/05 11:50:39;;;;;;;4.80;2.50;;;7.20;87.50;;;;;;4868576;29;20055;-80
2020/12/05 11:53:08;;;;;;;4.07;1.83;;;7.20;86.70;;;;;;4838908;29;20044;-79
2020/12/05 11:55:35;;;;;;;2.40;1.40;;;7.10;86.20;;;;;;4869276;29;20392;-79
2020/12/05 11:58:01;;;;;;;3.90;1.50;;;7.10;86.30;;;;;;4865432;29;20575;-80
2020/12/05 12:00:30;;;;;;;8.13;2.03;;;7.00;86.40;;;;;;4889134;29;20033;-80
2020/12/05 12:02:57;;;;;;;4.78;2.08;;;6.90;86.00;;;;;;4851649;29;20777;-79
2020/12/05 12:05:23;;;;;;;3.70;1.70;;;6.80;85.70;;;;;;4863664;29;20037;-80
2020/12/05 12:07:50;;;;;;;4.10;1.80;;;6.70;85.10;;;;;;4857407;29;20041;-79
2020/12/05 12:10:17;;;;;;;3.97;1.80;;;6.50;85.70;;;;;;4874960;29;20036;-79
2020/12/05 12:12:44;;;;;;;4.05;1.63;;;6.50;85.80;;;;;;4881558;29;20886;-79
2020/12/05 12:15:13;;;;;;;4.15;2.15;;;6.40;86.10;;;;;;4877390;29;20056;-79
2020/12/05 12:17:40;;;;;;;3.13;1.77;;;6.30;86.00;;;;;;4887352;29;20049;-79
2020/12/05 12:20:07;;;;;;;4.78;1.90;;;6.20;86.30;;;;;;4889774;29;20057;-80
2020/12/05 12:22:33;;;;;;;2.90;1.98;;;6.20;86.50;;;;;;4892164;29;20039;-80
2020/12/05 12:25:00;;;;;;;3.05;2.00;;;6.10;86.60;;;;;;4874191;29;20048;-80
2020/12/05 12:27:26;;;;;;;5.90;1.33;;;6.00;86.80;;;;;;4870977;29;20503;-79
2020/12/05 12:29:53;;;;;;;3.17;1.92;;;6.10;87.20;;;;;;4872187;29;20048;-80
2020/12/05 12:32:19;;;;;;;3.78;1.90;;;6.10;87.10;;;;;;4858117;29;20037;-80
2020/12/05 12:34:46;;;;;;;3.65;2.08;;;6.10;87.40;;;;;;4849834;29;20038;-79
2020/12/05 12:37:12;;;;;;;3.88;1.35;;;6.10;87.00;;;;;;4870332;29;20045;-79
2020/12/05 12:39:39;;;;;;;2.47;1.15;;;6.10;86.90;;;;;;4855044;29;20041;-79
2020/12/05 12:42:05;;;;;;;2.70;1.80;;;6.20;86.90;;;;;;4839697;29;20053;-80
2020/12/05 12:44:32;;;;;;;6.68;2.08;;;6.20;87.00;;;;;;4853172;29;20055;-79
2020/12/05 12:49:36;;;;;;;3.47;2.25;;;6.30;86.80;;;;;;4880541;29;20053;-79
2020/12/05 12:52:07;;;;;;;4.00;2.03;;;6.40;86.70;;;;;;4852365;29;20396;-80
2020/12/05 12:54:34;;;;;;;6.07;1.85;;;6.50;86.50;;;;;;4881312;29;20044;-80
2020/12/05 12:57:01;;;;;;;2.92;1.17;;;6.50;85.80;;;;;;4869452;29;20392;-79
2020/12/05 12:59:28;;;;;;;3.92;2.60;;;6.60;85.90;;;;;;4885246;29;20047;-80
2020/12/05 13:01:55;;;;;;;5.97;2.30;;;6.70;86.00;;;;;;4849513;29;20057;-79
2020/12/05 13:04:22;;;;;;;4.55;2.72;;;6.70;85.50;;;;;;4893143;29;20037;-80
2020/12/05 13:06:56;;;;;;;3.75;1.95;;;6.80;85.10;;;;;;4861747;29;20511;-79